sensor_id;sensor_type;location;lat;lon;timestamp;temperature;humidity
44477;DHT22;30180;44.788;10.366;2023-03-03T00:01:18;17.50;56.00
44477;DHT22;30180;44.788;10.366;2023-03-03T00:03:48;17.50;56.10
44477;DHT22;30180;44.788;10.366;2023-03-03T00:06:16;17.50;56.00
44477;DHT22;30180;44.788;10.366;2023-03-03T00:08:45;17.50;56.00
44477;DHT22;30180;44.788;10.366;2023-03-03T00:11:13;17.50;56.00
44477;DHT22;30180;44.788;10.366;2023-03-03T00:13:45;17.50;56.10
44477;DHT22;30180;44.788;10.366;2023-03-03T00:16:18;17.50;56.00
44477;DHT22;30180;44.788;10.366;2023-03-03T00:18:50;17.50;56.00
44477;DHT22;30180;44.788;10.366;2023-03-03T00:21:23;17.50;56.10
44477;DHT22;30180;44.788;10.366;2023-03-03T00:24:04;17.40;56.00
44477;DHT22;30180;44.788;10.366;2023-03-03T00:26:39;17.50;56.10
44477;DHT22;30180;44.788;10.366;2023-03-03T00:29:33;17.40;56.00
44477;DHT22;30180;44.788;10.366;2023-03-03T00:32:17;17.40;56.00
44477;DHT22;30180;44.788;10.366;2023-03-03T00:34:50;17.40;56.00
44477;DHT22;30180;44.788;10.366;2023-03-03T00:37:26;17.40;56.00
44477;DHT22;30180;44.788;10.366;2023-03-03T00:40:02;17.40;56.00
44477;DHT22;30180;44.788;10.366;2023-03-03T00:42:36;17.40;56.00
44477;DHT22;30180;44.788;10.366;2023-03-03T00:45:27;17.40;56.00
44477;DHT22;30180;44.788;10.366;2023-03-03T00:47:56;17.40;56.00
44477;DHT22;30180;44.788;10.366;2023-03-03T00:50:35;17.40;56.00
44477;DHT22;30180;44.788;10.366;2023-03-03T00:53:11;17.40;56.00
44477;DHT22;30180;44.788;10.366;2023-03-03T00:55:40;17.40;56.00
44477;DHT22;30180;44.788;10.366;2023-03-03T00:58:09;17.30;56.00
44477;DHT22;30180;44.788;10.366;2023-03-03T01:00:37;17.40;56.00
44477;DHT22;30180;44.788;10.366;2023-03-03T01:03:08;17.30;56.00
44477;DHT22;30180;44.788;10.366;2023-03-03T01:05:38;17.40;56.00
44477;DHT22;30180;44.788;10.366;2023-03-03T01:08:06;17.30;56.00
44477;DHT22;30180;44.788;10.366;2023-03-03T01:10:37;17.40;56.00
44477;DHT22;30180;44.788;10.366;2023-03-03T01:13:06;17.30;56.00
44477;DHT22;30180;44.788;10.366;2023-03-03T01:15:35;17.30;56.20
44477;DHT22;30180;44.788;10.366;2023-03-03T01:18:06;17.30;56.00
44477;DHT22;30180;44.788;10.366;2023-03-03T01:20:34;17.30;56.00
44477;DHT22;30180;44.788;10.366;2023-03-03T01:23:03;17.30;56.00
44477;DHT22;30180;44.788;10.366;2023-03-03T01:25:32;17.30;56.00
44477;DHT22;30180;44.788;10.366;2023-03-03T01:28:00;17.30;56.00
44477;DHT22;30180;44.788;10.366;2023-03-03T01:30:28;17.30;56.00
44477;DHT22;30180;44.788;10.366;2023-03-03T01:32:56;17.30;56.60
44477;DHT22;30180;44.788;10.366;2023-03-03T01:35:25;17.30;56.00
44477;DHT22;30180;44.788;10.366;2023-03-03T01:37:53;17.30;56.00
44477;DHT22;30180;44.788;10.366;2023-03-03T01:40:26;17.30;56.00
44477;DHT22;30180;44.788;10.366;2023-03-03T01:42:55;17.30;56.00
44477;DHT22;30180;44.788;10.366;2023-03-03T01:45:25;17.30;56.00
44477;DHT22;30180;44.788;10.366;2023-03-03T01:47:59;17.30;56.10
44477;DHT22;30180;44.788;10.366;2023-03-03T01:50:33;17.30;56.10
44477;DHT22;30180;44.788;10.366;2023-03-03T01:53:04;17.30;56.00
44477;DHT22;30180;44.788;10.366;2023-03-03T01:55:36;17.30;56.10
44477;DHT22;30180;44.788;10.366;2023-03-03T01:58:09;17.20;56.00
44477;DHT22;30180;44.788;10.366;2023-03-03T02:00:40;17.20;56.00
44477;DHT22;30180;44.788;10.366;2023-03-03T02:03:11;17.20;56.00
44477;DHT22;30180;44.788;10.366;2023-03-03T02:05:41;17.20;56.00
44477;DHT22;30180;44.788;10.366;2023-03-03T02:08:12;17.20;56.00
44477;DHT22;30180;44.788;10.366;2023-03-03T02:10:44;17.20;56.00
44477;DHT22;30180;44.788;10.366;2023-03-03T02:13:13;17.20;56.00
44477;DHT22;30180;44.788;10.366;2023-03-03T02:15:41;17.20;56.00
44477;DHT22;30180;44.788;10.366;2023-03-03T02:18:12;17.20;56.00
44477;DHT22;30180;44.788;10.366;2023-03-03T02:20:48;17.20;56.00
44477;DHT22;30180;44.788;10.366;2023-03-03T02:23:22;17.20;56.00
44477;DHT22;30180;44.788;10.366;2023-03-03T02:26:09;17.20;56.00
44477;DHT22;30180;44.788;10.366;2023-03-03T02:28:38;17.20;56.00
44477;DHT22;30180;44.788;10.366;2023-03-03T02:31:08;17.10;56.00
44477;DHT22;30180;44.788;10.366;2023-03-03T02:33:39;17.20;56.00
44477;DHT22;30180;44.788;10.366;2023-03-03T02:36:11;17.10;56.00
44477;DHT22;30180;44.788;10.366;2023-03-03T02:38:45;17.20;56.00
44477;DHT22;30180;44.788;10.366;2023-03-03T02:41:25;17.10;56.00
44477;DHT22;30180;44.788;10.366;2023-03-03T02:43:58;17.20;56.10
44477;DHT22;30180;44.788;10.366;2023-03-03T02:46:29;17.10;56.00
44477;DHT22;30180;44.788;10.366;2023-03-03T02:48:59;17.20;56.00
44477;DHT22;30180;44.788;10.366;2023-03-03T02:51:27;17.10;56.00
44477;DHT22;30180;44.788;10.366;2023-03-03T02:53:56;17.10;56.00
44477;DHT22;30180;44.788;10.366;2023-03-03T02:56:26;17.20;56.00
44477;DHT22;30180;44.788;10.366;2023-03-03T02:58:54;17.10;56.00
44477;DHT22;30180;44.788;10.366;2023-03-03T03:01:23;17.10;56.00
44477;DHT22;30180;44.788;10.366;2023-03-03T03:03:51;17.10;56.00
44477;DHT22;30180;44.788;10.366;2023-03-03T03:06:19;17.10;56.00
44477;DHT22;30180;44.788;10.366;2023-03-03T03:08:47;17.10;56.00
44477;DHT22;30180;44.788;10.366;2023-03-03T03:11:16;17.10;56.00
44477;DHT22;30180;44.788;10.366;2023-03-03T03:13:45;17.10;56.00
44477;DHT22;30180;44.788;10.366;2023-03-03T03:16:14;17.10;56.00
44477;DHT22;30180;44.788;10.366;2023-03-03T03:18:42;17.10;56.00
44477;DHT22;30180;44.788;10.366;2023-03-03T03:21:12;17.00;55.90
44477;DHT22;30180;44.788;10.366;2023-03-03T03:23:40;17.00;56.00
44477;DHT22;30180;44.788;10.366;2023-03-03T03:26:08;17.00;56.00
44477;DHT22;30180;44.788;10.366;2023-03-03T03:28:36;17.00;55.90
44477;DHT22;30180;44.788;10.366;2023-03-03T03:31:08;17.00;56.00
44477;DHT22;30180;44.788;10.366;2023-03-03T03:33:36;17.00;55.90
44477;DHT22;30180;44.788;10.366;2023-03-03T03:36:05;17.00;55.90
44477;DHT22;30180;44.788;10.366;2023-03-03T03:38:34;17.00;55.90
44477;DHT22;30180;44.788;10.366;2023-03-03T03:41:04;17.00;55.90
44477;DHT22;30180;44.788;10.366;2023-03-03T03:43:33;17.00;56.00
44477;DHT22;30180;44.788;10.366;2023-03-03T03:46:01;17.00;56.00
44477;DHT22;30180;44.788;10.366;2023-03-03T03:48:31;17.00;55.90
44477;DHT22;30180;44.788;10.366;2023-03-03T03:50:59;17.00;55.90
44477;DHT22;30180;44.788;10.366;2023-03-03T03:53:28;17.00;56.60
44477;DHT22;30180;44.788;10.366;2023-03-03T03:55:56;17.00;56.00
44477;DHT22;30180;44.788;10.366;2023-03-03T03:58:25;17.00;56.00
44477;DHT22;30180;44.788;10.366;2023-03-03T04:00:54;17.00;55.90
44477;DHT22;30180;44.788;10.366;2023-03-03T04:03:22;17.00;56.00
44477;DHT22;30180;44.788;10.366;2023-03-03T04:05:53;17.00;55.90
44477;DHT22;30180;44.788;10.366;2023-03-03T04:08:21;17.00;55.90
44477;DHT22;30180;44.788;10.366;2023-03-03T04:10:49;17.00;55.90
44477;DHT22;30180;44.788;10.366;2023-03-03T04:13:18;17.00;56.00
44477;DHT22;30180;44.788;10.366;2023-03-03T04:15:46;17.00;56.00
44477;DHT22;30180;44.788;10.366;2023-03-03T04:18:14;17.00;56.00
44477;DHT22;30180;44.788;10.366;2023-03-03T04:20:42;17.00;56.00
44477;DHT22;30180;44.788;10.366;2023-03-03T04:23:12;17.00;56.00
44477;DHT22;30180;44.788;10.366;2023-03-03T04:25:40;17.00;56.00
44477;DHT22;30180;44.788;10.366;2023-03-03T04:28:09;17.00;56.00
44477;DHT22;30180;44.788;10.366;2023-03-03T04:30:37;17.00;56.00
44477;DHT22;30180;44.788;10.366;2023-03-03T04:33:05;17.00;56.00
44477;DHT22;30180;44.788;10.366;2023-03-03T04:35:34;17.00;56.00
44477;DHT22;30180;44.788;10.366;2023-03-03T04:38:03;17.00;56.10
44477;DHT22;30180;44.788;10.366;2023-03-03T04:40:33;17.00;56.10
44477;DHT22;30180;44.788;10.366;2023-03-03T04:43:01;17.00;56.10
44477;DHT22;30180;44.788;10.366;2023-03-03T04:45:30;17.10;56.20
44477;DHT22;30180;44.788;10.366;2023-03-03T04:47:58;17.10;56.20
44477;DHT22;30180;44.788;10.366;2023-03-03T04:50:26;17.00;56.10
44477;DHT22;30180;44.788;10.366;2023-03-03T04:52:54;17.10;56.20
44477;DHT22;30180;44.788;10.366;2023-03-03T04:55:23;17.10;56.20
44477;DHT22;30180;44.788;10.366;2023-03-03T04:57:52;17.10;56.20
44477;DHT22;30180;44.788;10.366;2023-03-03T05:00:21;17.10;56.20
44477;DHT22;30180;44.788;10.366;2023-03-03T05:02:49;17.10;56.20
44477;DHT22;30180;44.788;10.366;2023-03-03T05:05:17;17.10;56.20
44477;DHT22;30180;44.788;10.366;2023-03-03T05:07:45;17.10;56.20
44477;DHT22;30180;44.788;10.366;2023-03-03T05:10:14;17.20;56.30
44477;DHT22;30180;44.788;10.366;2023-03-03T05:12:43;17.20;56.30
44477;DHT22;30180;44.788;10.366;2023-03-03T05:15:12;17.20;56.20
44477;DHT22;30180;44.788;10.366;2023-03-03T05:17:40;17.20;56.30
44477;DHT22;30180;44.788;10.366;2023-03-03T05:20:10;17.20;56.20
44477;DHT22;30180;44.788;10.366;2023-03-03T05:22:39;17.20;56.30
44477;DHT22;30180;44.788;10.366;2023-03-03T05:25:07;17.20;56.20
44477;DHT22;30180;44.788;10.366;2023-03-03T05:27:38;17.30;56.30
44477;DHT22;30180;44.788;10.366;2023-03-03T05:30:09;17.20;56.20
44477;DHT22;30180;44.788;10.366;2023-03-03T05:32:38;17.30;56.20
44477;DHT22;30180;44.788;10.366;2023-03-03T05:35:07;17.30;56.20
44477;DHT22;30180;44.788;10.366;2023-03-03T05:37:35;17.30;56.20
44477;DHT22;30180;44.788;10.366;2023-03-03T05:40:07;17.30;56.20
44477;DHT22;30180;44.788;10.366;2023-03-03T05:42:35;17.30;56.20
44477;DHT22;30180;44.788;10.366;2023-03-03T05:45:04;17.30;56.20
44477;DHT22;30180;44.788;10.366;2023-03-03T05:47:33;17.30;56.20
44477;DHT22;30180;44.788;10.366;2023-03-03T05:50:03;17.30;56.20
44477;DHT22;30180;44.788;10.366;2023-03-03T05:52:32;17.30;56.10
44477;DHT22;30180;44.788;10.366;2023-03-03T05:55:00;17.30;56.10
44477;DHT22;30180;44.788;10.366;2023-03-03T05:57:28;17.30;56.10
44477;DHT22;30180;44.788;10.366;2023-03-03T05:59:57;17.30;56.10
44477;DHT22;30180;44.788;10.366;2023-03-03T06:02:25;17.30;56.10
44477;DHT22;30180;44.788;10.366;2023-03-03T06:04:53;17.30;56.10
44477;DHT22;30180;44.788;10.366;2023-03-03T06:07:23;17.30;56.00
44477;DHT22;30180;44.788;10.366;2023-03-03T06:09:51;17.30;56.10
44477;DHT22;30180;44.788;10.366;2023-03-03T06:12:20;17.30;56.00
44477;DHT22;30180;44.788;10.366;2023-03-03T06:14:48;17.30;56.10
44477;DHT22;30180;44.788;10.366;2023-03-03T06:17:16;17.30;56.00
44477;DHT22;30180;44.788;10.366;2023-03-03T06:19:44;17.30;56.00
44477;DHT22;30180;44.788;10.366;2023-03-03T06:22:13;17.30;56.00
44477;DHT22;30180;44.788;10.366;2023-03-03T06:24:43;17.30;56.00
44477;DHT22;30180;44.788;10.366;2023-03-03T06:27:11;17.30;56.00
44477;DHT22;30180;44.788;10.366;2023-03-03T06:29:40;17.30;55.90
44477;DHT22;30180;44.788;10.366;2023-03-03T06:32:08;17.30;55.90
44477;DHT22;30180;44.788;10.366;2023-03-03T06:34:36;17.30;55.90
44477;DHT22;30180;44.788;10.366;2023-03-03T06:37:04;17.30;55.90
44477;DHT22;30180;44.788;10.366;2023-03-03T06:39:33;17.30;55.90
44477;DHT22;30180;44.788;10.366;2023-03-03T06:42:02;17.20;55.80
44477;DHT22;30180;44.788;10.366;2023-03-03T06:44:31;17.20;55.90
44477;DHT22;30180;44.788;10.366;2023-03-03T06:46:59;17.20;55.90
44477;DHT22;30180;44.788;10.366;2023-03-03T06:49:28;17.20;55.80
44477;DHT22;30180;44.788;10.366;2023-03-03T06:51:57;17.20;55.80
44477;DHT22;30180;44.788;10.366;2023-03-03T06:54:28;17.20;55.80
44477;DHT22;30180;44.788;10.366;2023-03-03T06:56:59;17.30;55.90
44477;DHT22;30180;44.788;10.366;2023-03-03T06:59:29;17.20;55.80
44477;DHT22;30180;44.788;10.366;2023-03-03T07:01:57;17.20;55.80
44477;DHT22;30180;44.788;10.366;2023-03-03T07:04:28;17.30;55.90
44477;DHT22;30180;44.788;10.366;2023-03-03T07:06:57;17.30;55.90
44477;DHT22;30180;44.788;10.366;2023-03-03T07:09:28;17.30;55.80
44477;DHT22;30180;44.788;10.366;2023-03-03T07:12:00;17.30;55.80
44477;DHT22;30180;44.788;10.366;2023-03-03T07:14:30;17.30;55.80
44477;DHT22;30180;44.788;10.366;2023-03-03T07:17:00;17.30;55.80
44477;DHT22;30180;44.788;10.366;2023-03-03T07:19:33;17.30;55.80
44477;DHT22;30180;44.788;10.366;2023-03-03T07:22:13;17.30;55.80
44477;DHT22;30180;44.788;10.366;2023-03-03T07:24:43;17.20;55.70
44477;DHT22;30180;44.788;10.366;2023-03-03T07:27:16;17.30;55.70
44477;DHT22;30180;44.788;10.366;2023-03-03T07:29:49;17.20;55.70
44477;DHT22;30180;44.788;10.366;2023-03-03T07:32:33;17.30;55.70
44477;DHT22;30180;44.788;10.366;2023-03-03T07:35:16;17.30;55.70
44477;DHT22;30180;44.788;10.366;2023-03-03T07:37:49;17.20;55.60
44477;DHT22;30180;44.788;10.366;2023-03-03T07:40:30;17.20;55.60
44477;DHT22;30180;44.788;10.366;2023-03-03T07:43:26;17.20;55.60
44477;DHT22;30180;44.788;10.366;2023-03-03T07:46:02;17.20;55.60
44477;DHT22;30180;44.788;10.366;2023-03-03T07:48:34;17.20;55.60
44477;DHT22;30180;44.788;10.366;2023-03-03T07:51:10;17.20;55.60
44477;DHT22;30180;44.788;10.366;2023-03-03T07:53:38;17.20;55.60
44477;DHT22;30180;44.788;10.366;2023-03-03T07:56:14;17.20;55.70
44477;DHT22;30180;44.788;10.366;2023-03-03T07:58:44;17.30;55.80
44477;DHT22;30180;44.788;10.366;2023-03-03T08:01:34;17.30;55.80
44477;DHT22;30180;44.788;10.366;2023-03-03T08:04:15;17.20;55.80
44477;DHT22;30180;44.788;10.366;2023-03-03T08:06:47;17.20;55.80
44477;DHT22;30180;44.788;10.366;2023-03-03T08:12:22;17.30;55.90
44477;DHT22;30180;44.788;10.366;2023-03-03T08:14:53;17.30;55.80
44477;DHT22;30180;44.788;10.366;2023-03-03T08:17:25;17.30;55.80
44477;DHT22;30180;44.788;10.366;2023-03-03T08:19:55;17.30;55.90
44477;DHT22;30180;44.788;10.366;2023-03-03T08:22:27;17.30;55.90
44477;DHT22;30180;44.788;10.366;2023-03-03T08:24:58;17.30;55.90
44477;DHT22;30180;44.788;10.366;2023-03-03T08:27:26;17.30;55.90
44477;DHT22;30180;44.788;10.366;2023-03-03T08:29:54;17.30;55.90
44477;DHT22;30180;44.788;10.366;2023-03-03T08:32:24;17.30;55.90
44477;DHT22;30180;44.788;10.366;2023-03-03T08:34:52;17.20;55.90
44477;DHT22;30180;44.788;10.366;2023-03-03T08:37:21;17.20;55.90
44477;DHT22;30180;44.788;10.366;2023-03-03T08:39:49;17.30;56.00
44477;DHT22;30180;44.788;10.366;2023-03-03T08:42:17;17.20;55.90
44477;DHT22;30180;44.788;10.366;2023-03-03T08:44:46;17.20;56.00
44477;DHT22;30180;44.788;10.366;2023-03-03T08:47:14;17.20;56.00
44477;DHT22;30180;44.788;10.366;2023-03-03T08:49:43;17.20;56.00
44477;DHT22;30180;44.788;10.366;2023-03-03T08:52:12;17.20;56.00
44477;DHT22;30180;44.788;10.366;2023-03-03T08:54:41;17.20;56.00
44477;DHT22;30180;44.788;10.366;2023-03-03T08:57:09;17.20;56.00
44477;DHT22;30180;44.788;10.366;2023-03-03T08:59:37;17.20;56.00
44477;DHT22;30180;44.788;10.366;2023-03-03T09:02:06;17.20;56.00
44477;DHT22;30180;44.788;10.366;2023-03-03T09:04:34;17.20;56.00
44477;DHT22;30180;44.788;10.366;2023-03-03T09:07:04;17.20;56.00
44477;DHT22;30180;44.788;10.366;2023-03-03T09:09:32;17.20;56.00
44477;DHT22;30180;44.788;10.366;2023-03-03T09:12:12;17.20;56.10
44477;DHT22;30180;44.788;10.366;2023-03-03T09:14:41;17.20;56.00
44477;DHT22;30180;44.788;10.366;2023-03-03T09:17:24;17.20;56.10
44477;DHT22;30180;44.788;10.366;2023-03-03T09:19:57;17.10;56.00
44477;DHT22;30180;44.788;10.366;2023-03-03T09:22:28;17.10;56.10
44477;DHT22;30180;44.788;10.366;2023-03-03T09:24:58;17.10;56.10
44477;DHT22;30180;44.788;10.366;2023-03-03T09:27:29;17.10;56.10
44477;DHT22;30180;44.788;10.366;2023-03-03T09:30:00;17.20;56.20
44477;DHT22;30180;44.788;10.366;2023-03-03T09:32:33;17.10;56.10
44477;DHT22;30180;44.788;10.366;2023-03-03T09:35:30;17.10;56.20
44477;DHT22;30180;44.788;10.366;2023-03-03T09:38:17;17.10;56.20
44477;DHT22;30180;44.788;10.366;2023-03-03T09:41:01;17.10;56.20
44477;DHT22;30180;44.788;10.366;2023-03-03T09:43:36;17.10;56.20
44477;DHT22;30180;44.788;10.366;2023-03-03T09:46:12;17.10;56.20
44477;DHT22;30180;44.788;10.366;2023-03-03T09:48:54;17.10;56.40
44477;DHT22;30180;44.788;10.366;2023-03-03T09:51:42;17.10;56.20
44477;DHT22;30180;44.788;10.366;2023-03-03T09:54:24;17.10;56.30
44477;DHT22;30180;44.788;10.366;2023-03-03T09:57:00;17.10;56.20
44477;DHT22;30180;44.788;10.366;2023-03-03T09:59:43;17.10;56.30
44477;DHT22;30180;44.788;10.366;2023-03-03T10:02:34;17.00;56.30
44477;DHT22;30180;44.788;10.366;2023-03-03T10:05:17;17.00;56.30
44477;DHT22;30180;44.788;10.366;2023-03-03T10:07:54;17.00;56.30
44477;DHT22;30180;44.788;10.366;2023-03-03T10:10:47;17.10;56.40
44477;DHT22;30180;44.788;10.366;2023-03-03T10:13:49;17.10;56.40
44477;DHT22;30180;44.788;10.366;2023-03-03T10:19:36;17.00;56.50
44477;DHT22;30180;44.788;10.366;2023-03-03T10:22:18;17.10;56.50
44477;DHT22;30180;44.788;10.366;2023-03-03T10:25:06;17.10;56.50
44477;DHT22;30180;44.788;10.366;2023-03-03T10:27:55;17.10;56.50
44477;DHT22;30180;44.788;10.366;2023-03-03T10:30:34;17.10;56.60
44477;DHT22;30180;44.788;10.366;2023-03-03T10:33:29;17.10;56.60
44477;DHT22;30180;44.788;10.366;2023-03-03T10:36:15;17.10;56.70
44477;DHT22;30180;44.788;10.366;2023-03-03T10:38:56;17.10;56.70
44477;DHT22;30180;44.788;10.366;2023-03-03T10:41:46;17.10;56.70
44477;DHT22;30180;44.788;10.366;2023-03-03T10:44:32;17.10;56.70
44477;DHT22;30180;44.788;10.366;2023-03-03T10:47:35;17.10;56.70
44477;DHT22;30180;44.788;10.366;2023-03-03T10:50:16;17.10;56.80
44477;DHT22;30180;44.788;10.366;2023-03-03T10:52:49;17.20;56.90
44477;DHT22;30180;44.788;10.366;2023-03-03T10:55:35;17.10;56.90
44477;DHT22;30180;44.788;10.366;2023-03-03T10:58:21;17.20;57.00
44477;DHT22;30180;44.788;10.366;2023-03-03T11:01:00;17.20;57.00
44477;DHT22;30180;44.788;10.366;2023-03-03T11:03:52;17.20;56.90
44477;DHT22;30180;44.788;10.366;2023-03-03T11:06:29;17.20;57.00
44477;DHT22;30180;44.788;10.366;2023-03-03T11:09:07;17.20;57.00
44477;DHT22;30180;44.788;10.366;2023-03-03T11:11:42;17.20;57.10
44477;DHT22;30180;44.788;10.366;2023-03-03T11:14:20;17.20;57.00
44477;DHT22;30180;44.788;10.366;2023-03-03T11:16:59;17.20;57.10
44477;DHT22;30180;44.788;10.366;2023-03-03T11:19:54;17.20;57.10
44477;DHT22;30180;44.788;10.366;2023-03-03T11:22:33;17.30;57.20
44477;DHT22;30180;44.788;10.366;2023-03-03T11:25:15;17.20;57.10
44477;DHT22;30180;44.788;10.366;2023-03-03T11:28:09;17.30;57.20
44477;DHT22;30180;44.788;10.366;2023-03-03T11:30:53;17.30;57.20
44477;DHT22;30180;44.788;10.366;2023-03-03T11:33:31;17.30;57.20
44477;DHT22;30180;44.788;10.366;2023-03-03T11:36:09;17.20;57.20
44477;DHT22;30180;44.788;10.366;2023-03-03T11:38:47;17.30;57.30
44477;DHT22;30180;44.788;10.366;2023-03-03T11:41:30;17.30;57.30
44477;DHT22;30180;44.788;10.366;2023-03-03T11:44:04;17.30;57.30
44477;DHT22;30180;44.788;10.366;2023-03-03T11:46:41;17.20;57.20
44477;DHT22;30180;44.788;10.366;2023-03-03T11:49:17;17.20;57.30
44477;DHT22;30180;44.788;10.366;2023-03-03T11:51:54;17.20;57.30
44477;DHT22;30180;44.788;10.366;2023-03-03T11:54:29;17.30;57.40
44477;DHT22;30180;44.788;10.366;2023-03-03T11:57:13;17.20;57.30
44477;DHT22;30180;44.788;10.366;2023-03-03T11:59:49;17.20;57.40
44477;DHT22;30180;44.788;10.366;2023-03-03T12:02:44;17.20;57.40
44477;DHT22;30180;44.788;10.366;2023-03-03T12:05:35;17.20;57.40
44477;DHT22;30180;44.788;10.366;2023-03-03T12:08:15;17.20;57.40
44477;DHT22;30180;44.788;10.366;2023-03-03T12:10:48;17.20;57.40
44477;DHT22;30180;44.788;10.366;2023-03-03T12:13:23;17.20;57.50
44477;DHT22;30180;44.788;10.366;2023-03-03T12:16:00;17.20;57.50
44477;DHT22;30180;44.788;10.366;2023-03-03T12:19:01;17.20;57.50
44477;DHT22;30180;44.788;10.366;2023-03-03T12:21:45;17.20;57.50
44477;DHT22;30180;44.788;10.366;2023-03-03T12:24:29;17.20;57.60
44477;DHT22;30180;44.788;10.366;2023-03-03T12:27:09;17.20;57.60
44477;DHT22;30180;44.788;10.366;2023-03-03T12:29:43;17.20;57.60
44477;DHT22;30180;44.788;10.366;2023-03-03T12:32:26;17.20;57.60
44477;DHT22;30180;44.788;10.366;2023-03-03T12:35:05;17.20;57.60
44477;DHT22;30180;44.788;10.366;2023-03-03T12:37:46;17.20;57.60
44477;DHT22;30180;44.788;10.366;2023-03-03T12:40:18;17.20;57.70
44477;DHT22;30180;44.788;10.366;2023-03-03T12:42:55;17.20;57.70
44477;DHT22;30180;44.788;10.366;2023-03-03T12:45:34;17.20;57.70
44477;DHT22;30180;44.788;10.366;2023-03-03T12:48:08;17.20;57.70
44477;DHT22;30180;44.788;10.366;2023-03-03T12:50:46;17.20;57.70
44477;DHT22;30180;44.788;10.366;2023-03-03T12:53:34;17.10;57.70
44477;DHT22;30180;44.788;10.366;2023-03-03T12:56:07;17.10;57.70
44477;DHT22;30180;44.788;10.366;2023-03-03T12:58:43;17.20;57.80
44477;DHT22;30180;44.788;10.366;2023-03-03T13:01:25;17.10;57.80
44477;DHT22;30180;44.788;10.366;2023-03-03T13:04:04;17.10;57.80
44477;DHT22;30180;44.788;10.366;2023-03-03T13:06:39;17.20;57.90
44477;DHT22;30180;44.788;10.366;2023-03-03T13:09:27;17.10;57.80
44477;DHT22;30180;44.788;10.366;2023-03-03T13:12:23;17.10;57.80
44477;DHT22;30180;44.788;10.366;2023-03-03T13:15:01;17.10;57.90
44477;DHT22;30180;44.788;10.366;2023-03-03T13:17:34;17.10;57.90
44477;DHT22;30180;44.788;10.366;2023-03-03T13:20:18;17.10;57.90
44477;DHT22;30180;44.788;10.366;2023-03-03T13:22:50;17.10;57.90
44477;DHT22;30180;44.788;10.366;2023-03-03T13:25:38;17.10;58.00
44477;DHT22;30180;44.788;10.366;2023-03-03T13:28:13;17.10;58.00
44477;DHT22;30180;44.788;10.366;2023-03-03T13:30:48;17.10;58.00
44477;DHT22;30180;44.788;10.366;2023-03-03T13:33:21;17.10;58.10
44477;DHT22;30180;44.788;10.366;2023-03-03T13:35:53;17.10;58.10
44477;DHT22;30180;44.788;10.366;2023-03-03T13:38:27;17.10;58.10
44477;DHT22;30180;44.788;10.366;2023-03-03T13:41:06;17.10;58.10
44477;DHT22;30180;44.788;10.366;2023-03-03T13:43:42;17.10;58.70
44477;DHT22;30180;44.788;10.366;2023-03-03T13:46:15;17.10;58.10
44477;DHT22;30180;44.788;10.366;2023-03-03T13:49:01;17.00;58.10
44477;DHT22;30180;44.788;10.366;2023-03-03T13:51:41;17.00;58.20
44477;DHT22;30180;44.788;10.366;2023-03-03T13:54:47;17.10;58.30
44477;DHT22;30180;44.788;10.366;2023-03-03T13:57:29;17.10;58.30
44477;DHT22;30180;44.788;10.366;2023-03-03T14:00:11;17.10;58.30
44477;DHT22;30180;44.788;10.366;2023-03-03T14:03:28;17.10;58.30
44477;DHT22;30180;44.788;10.366;2023-03-03T14:06:01;17.10;58.40
44477;DHT22;30180;44.788;10.366;2023-03-03T14:08:41;17.10;58.40
44477;DHT22;30180;44.788;10.366;2023-03-03T14:11:18;17.10;58.40
44477;DHT22;30180;44.788;10.366;2023-03-03T14:13:59;17.10;58.40
44477;DHT22;30180;44.788;10.366;2023-03-03T14:16:42;17.10;58.40
44477;DHT22;30180;44.788;10.366;2023-03-03T14:19:15;17.10;58.50
44477;DHT22;30180;44.788;10.366;2023-03-03T14:21:52;17.10;58.50
44477;DHT22;30180;44.788;10.366;2023-03-03T14:24:25;17.10;58.50
44477;DHT22;30180;44.788;10.366;2023-03-03T14:26:55;17.10;58.50
44477;DHT22;30180;44.788;10.366;2023-03-03T14:29:31;17.10;58.60
44477;DHT22;30180;44.788;10.366;2023-03-03T14:32:02;17.10;58.60
44477;DHT22;30180;44.788;10.366;2023-03-03T14:34:56;17.10;58.60
44477;DHT22;30180;44.788;10.366;2023-03-03T14:37:26;17.10;58.60
44477;DHT22;30180;44.788;10.366;2023-03-03T14:40:12;17.10;58.60
44477;DHT22;30180;44.788;10.366;2023-03-03T14:42:46;17.10;58.60
44477;DHT22;30180;44.788;10.366;2023-03-03T14:45:27;17.10;58.70
44477;DHT22;30180;44.788;10.366;2023-03-03T14:47:57;17.10;58.70
44477;DHT22;30180;44.788;10.366;2023-03-03T14:50:31;17.10;58.70
44477;DHT22;30180;44.788;10.366;2023-03-03T14:53:11;17.10;58.70
44477;DHT22;30180;44.788;10.366;2023-03-03T14:55:42;17.10;58.80
44477;DHT22;30180;44.788;10.366;2023-03-03T14:58:29;17.10;58.90
44477;DHT22;30180;44.788;10.366;2023-03-03T15:01:13;17.10;58.90
44477;DHT22;30180;44.788;10.366;2023-03-03T15:03:47;17.10;58.90
44477;DHT22;30180;44.788;10.366;2023-03-03T15:06:32;17.10;58.90
44477;DHT22;30180;44.788;10.366;2023-03-03T15:09:28;17.10;59.00
44477;DHT22;30180;44.788;10.366;2023-03-03T15:12:00;17.10;59.10
44477;DHT22;30180;44.788;10.366;2023-03-03T15:14:30;17.10;59.00
44477;DHT22;30180;44.788;10.366;2023-03-03T15:17:25;17.10;59.00
44477;DHT22;30180;44.788;10.366;2023-03-03T15:20:17;17.10;59.10
44477;DHT22;30180;44.788;10.366;2023-03-03T15:22:50;17.10;59.10
44477;DHT22;30180;44.788;10.366;2023-03-03T15:25:25;17.10;59.10
44477;DHT22;30180;44.788;10.366;2023-03-03T15:28:31;17.20;59.20
44477;DHT22;30180;44.788;10.366;2023-03-03T15:31:11;17.10;59.20
44477;DHT22;30180;44.788;10.366;2023-03-03T15:33:49;17.10;59.20
44477;DHT22;30180;44.788;10.366;2023-03-03T15:36:26;17.10;59.20
44477;DHT22;30180;44.788;10.366;2023-03-03T15:39:06;17.10;59.20
44477;DHT22;30180;44.788;10.366;2023-03-03T15:41:42;17.10;59.20
44477;DHT22;30180;44.788;10.366;2023-03-03T15:44:15;17.10;59.20
44477;DHT22;30180;44.788;10.366;2023-03-03T15:47:14;17.10;59.20
44477;DHT22;30180;44.788;10.366;2023-03-03T15:50:06;17.20;59.30
44477;DHT22;30180;44.788;10.366;2023-03-03T15:52:42;17.20;59.40
44477;DHT22;30180;44.788;10.366;2023-03-03T15:55:23;17.20;59.40
44477;DHT22;30180;44.788;10.366;2023-03-03T15:58:05;17.20;59.50
44477;DHT22;30180;44.788;10.366;2023-03-03T16:00:48;17.20;59.40
44477;DHT22;30180;44.788;10.366;2023-03-03T16:03:25;17.20;59.50
44477;DHT22;30180;44.788;10.366;2023-03-03T16:06:02;17.20;59.50
44477;DHT22;30180;44.788;10.366;2023-03-03T16:08:41;17.30;59.60